sensor_id;sensor_type;location;lat;lon;timestamp;temperature;humidity
37204;DHT22;23098;48.054;10.636;2023-04-24T00:00:36;9.30;99.90
37204;DHT22;23098;48.054;10.636;2023-04-24T00:03:02;9.30;99.90
37204;DHT22;23098;48.054;10.636;2023-04-24T00:05:28;9.30;99.90
37204;DHT22;23098;48.054;10.636;2023-04-24T00:07:55;9.30;99.90
37204;DHT22;23098;48.054;10.636;2023-04-24T00:10:21;9.30;99.90
37204;DHT22;23098;48.054;10.636;2023-04-24T00:12:46;9.30;99.90
37204;DHT22;23098;48.054;10.636;2023-04-24T00:15:12;9.30;99.90
37204;DHT22;23098;48.054;10.636;2023-04-24T00:17:38;9.30;99.90
37204;DHT22;23098;48.054;10.636;2023-04-24T00:20:04;9.30;99.90
37204;DHT22;23098;48.054;10.636;2023-04-24T00:22:32;9.30;99.90
37204;DHT22;23098;48.054;10.636;2023-04-24T00:24:57;9.20;99.90
37204;DHT22;23098;48.054;10.636;2023-04-24T00:27:23;9.20;99.90
37204;DHT22;23098;48.054;10.636;2023-04-24T00:29:49;9.20;99.90
37204;DHT22;23098;48.054;10.636;2023-04-24T00:32:15;9.20;99.90
37204;DHT22;23098;48.054;10.636;2023-04-24T00:34:41;9.20;99.90
37204;DHT22;23098;48.054;10.636;2023-04-24T00:37:07;9.30;99.90
37204;DHT22;23098;48.054;10.636;2023-04-24T00:39:33;9.30;99.90
37204;DHT22;23098;48.054;10.636;2023-04-24T00:41:58;9.20;99.90
37204;DHT22;23098;48.054;10.636;2023-04-24T00:44:24;9.20;99.90
37204;DHT22;23098;48.054;10.636;2023-04-24T00:46:50;9.30;99.90
37204;DHT22;23098;48.054;10.636;2023-04-24T00:49:23;9.30;99.90
37204;DHT22;23098;48.054;10.636;2023-04-24T00:51:48;9.30;99.90
37204;DHT22;23098;48.054;10.636;2023-04-24T00:54:16;9.30;99.90
37204;DHT22;23098;48.054;10.636;2023-04-24T00:56:42;9.30;99.90
37204;DHT22;23098;48.054;10.636;2023-04-24T00:59:09;9.30;99.90
37204;DHT22;23098;48.054;10.636;2023-04-24T01:01:35;9.20;99.90
37204;DHT22;23098;48.054;10.636;2023-04-24T01:04:01;9.30;99.90
37204;DHT22;23098;48.054;10.636;2023-04-24T01:06:29;9.20;99.90
37204;DHT22;23098;48.054;10.636;2023-04-24T01:08:57;9.20;99.90
37204;DHT22;23098;48.054;10.636;2023-04-24T01:11:22;9.20;99.90
37204;DHT22;23098;48.054;10.636;2023-04-24T01:13:48;9.20;99.90
37204;DHT22;23098;48.054;10.636;2023-04-24T01:16:14;9.20;99.90
37204;DHT22;23098;48.054;10.636;2023-04-24T01:18:43;9.20;99.90
37204;DHT22;23098;48.054;10.636;2023-04-24T01:21:09;9.20;99.90
37204;DHT22;23098;48.054;10.636;2023-04-24T01:23:36;9.20;99.90
37204;DHT22;23098;48.054;10.636;2023-04-24T01:26:02;9.20;99.90
37204;DHT22;23098;48.054;10.636;2023-04-24T01:28:29;9.20;99.90
37204;DHT22;23098;48.054;10.636;2023-04-24T01:30:54;9.20;99.90
37204;DHT22;23098;48.054;10.636;2023-04-24T01:33:21;9.20;99.90
37204;DHT22;23098;48.054;10.636;2023-04-24T01:35:48;9.20;99.90
37204;DHT22;23098;48.054;10.636;2023-04-24T01:38:14;9.20;99.90
37204;DHT22;23098;48.054;10.636;2023-04-24T01:40:40;9.30;99.90
37204;DHT22;23098;48.054;10.636;2023-04-24T01:43:05;9.30;99.90
37204;DHT22;23098;48.054;10.636;2023-04-24T01:45:31;9.20;99.90
37204;DHT22;23098;48.054;10.636;2023-04-24T01:47:57;9.30;99.90
37204;DHT22;23098;48.054;10.636;2023-04-24T01:50:22;9.30;99.90
37204;DHT22;23098;48.054;10.636;2023-04-24T01:52:50;9.20;99.90
37204;DHT22;23098;48.054;10.636;2023-04-24T01:55:16;9.20;99.90
37204;DHT22;23098;48.054;10.636;2023-04-24T01:57:41;9.20;99.90
37204;DHT22;23098;48.054;10.636;2023-04-24T02:00:08;9.20;99.90
37204;DHT22;23098;48.054;10.636;2023-04-24T02:02:34;9.20;99.90
37204;DHT22;23098;48.054;10.636;2023-04-24T02:05:00;9.20;99.90
37204;DHT22;23098;48.054;10.636;2023-04-24T02:07:26;9.20;99.90
37204;DHT22;23098;48.054;10.636;2023-04-24T02:09:51;9.20;99.90
37204;DHT22;23098;48.054;10.636;2023-04-24T02:12:17;9.20;99.90
37204;DHT22;23098;48.054;10.636;2023-04-24T02:14:45;9.10;99.90
37204;DHT22;23098;48.054;10.636;2023-04-24T02:17:10;9.10;99.90
37204;DHT22;23098;48.054;10.636;2023-04-24T02:19:37;9.10;99.90
37204;DHT22;23098;48.054;10.636;2023-04-24T02:22:03;9.00;99.90
37204;DHT22;23098;48.054;10.636;2023-04-24T02:24:28;9.00;99.90
37204;DHT22;23098;48.054;10.636;2023-04-24T02:26:54;9.00;99.90
37204;DHT22;23098;48.054;10.636;2023-04-24T02:29:20;9.00;99.90
37204;DHT22;23098;48.054;10.636;2023-04-24T02:31:45;9.00;99.90
37204;DHT22;23098;48.054;10.636;2023-04-24T02:34:11;9.00;99.90
37204;DHT22;23098;48.054;10.636;2023-04-24T02:36:36;9.00;99.90
37204;DHT22;23098;48.054;10.636;2023-04-24T02:39:02;9.00;99.90
37204;DHT22;23098;48.054;10.636;2023-04-24T02:41:28;9.00;99.90
37204;DHT22;23098;48.054;10.636;2023-04-24T02:43:57;8.90;99.90
37204;DHT22;23098;48.054;10.636;2023-04-24T02:46:23;8.90;99.90
37204;DHT22;23098;48.054;10.636;2023-04-24T02:48:48;8.90;99.90
37204;DHT22;23098;48.054;10.636;2023-04-24T02:51:14;8.90;99.90
37204;DHT22;23098;48.054;10.636;2023-04-24T02:53:40;8.90;99.90
37204;DHT22;23098;48.054;10.636;2023-04-24T02:56:06;8.90;99.90
37204;DHT22;23098;48.054;10.636;2023-04-24T02:58:31;8.90;99.90
37204;DHT22;23098;48.054;10.636;2023-04-24T03:00:57;8.80;99.90
37204;DHT22;23098;48.054;10.636;2023-04-24T03:03:22;8.90;99.90
37204;DHT22;23098;48.054;10.636;2023-04-24T03:05:49;8.80;99.90
37204;DHT22;23098;48.054;10.636;2023-04-24T03:08:14;8.80;99.90
37204;DHT22;23098;48.054;10.636;2023-04-24T03:10:42;8.80;99.90
37204;DHT22;23098;48.054;10.636;2023-04-24T03:13:07;8.80;99.90
37204;DHT22;23098;48.054;10.636;2023-04-24T03:15:33;8.90;99.90
37204;DHT22;23098;48.054;10.636;2023-04-24T03:17:58;8.90;99.90
37204;DHT22;23098;48.054;10.636;2023-04-24T03:20:24;8.80;99.90
37204;DHT22;23098;48.054;10.636;2023-04-24T03:22:49;8.90;99.90
37204;DHT22;23098;48.054;10.636;2023-04-24T03:25:15;8.80;99.90
37204;DHT22;23098;48.054;10.636;2023-04-24T03:27:40;8.80;99.90
37204;DHT22;23098;48.054;10.636;2023-04-24T03:30:07;8.80;99.90
37204;DHT22;23098;48.054;10.636;2023-04-24T03:32:33;8.80;99.90
37204;DHT22;23098;48.054;10.636;2023-04-24T03:34:58;8.80;99.90
37204;DHT22;23098;48.054;10.636;2023-04-24T03:37:24;8.80;99.90
37204;DHT22;23098;48.054;10.636;2023-04-24T03:39:49;8.90;99.90
37204;DHT22;23098;48.054;10.636;2023-04-24T03:42:15;8.90;99.90
37204;DHT22;23098;48.054;10.636;2023-04-24T03:44:40;8.90;99.90
37204;DHT22;23098;48.054;10.636;2023-04-24T03:47:06;8.90;99.90
37204;DHT22;23098;48.054;10.636;2023-04-24T03:49:31;8.90;99.90
37204;DHT22;23098;48.054;10.636;2023-04-24T03:51:57;8.90;99.90
37204;DHT22;23098;48.054;10.636;2023-04-24T03:54:22;8.90;99.90
37204;DHT22;23098;48.054;10.636;2023-04-24T03:56:48;9.00;99.90
37204;DHT22;23098;48.054;10.636;2023-04-24T03:59:13;8.90;99.90
37204;DHT22;23098;48.054;10.636;2023-04-24T04:01:39;8.90;99.90
37204;DHT22;23098;48.054;10.636;2023-04-24T04:04:07;8.90;99.90
37204;DHT22;23098;48.054;10.636;2023-04-24T04:06:33;8.90;99.90
37204;DHT22;23098;48.054;10.636;2023-04-24T04:08:59;8.90;99.90
37204;DHT22;23098;48.054;10.636;2023-04-24T04:11:26;8.90;99.90
37204;DHT22;23098;48.054;10.636;2023-04-24T04:13:51;8.90;99.90
37204;DHT22;23098;48.054;10.636;2023-04-24T04:16:17;8.80;99.90
37204;DHT22;23098;48.054;10.636;2023-04-24T04:18:43;8.90;99.90
37204;DHT22;23098;48.054;10.636;2023-04-24T04:21:09;8.90;99.90
37204;DHT22;23098;48.054;10.636;2023-04-24T04:23:35;8.90;99.90
37204;DHT22;23098;48.054;10.636;2023-04-24T04:26:01;8.90;99.90
37204;DHT22;23098;48.054;10.636;2023-04-24T04:28:27;8.90;99.90
37204;DHT22;23098;48.054;10.636;2023-04-24T04:30:52;8.90;99.90
37204;DHT22;23098;48.054;10.636;2023-04-24T04:33:20;8.90;99.90
37204;DHT22;23098;48.054;10.636;2023-04-24T04:35:46;8.90;99.90
37204;DHT22;23098;48.054;10.636;2023-04-24T04:38:14;8.90;99.90
37204;DHT22;23098;48.054;10.636;2023-04-24T04:40:40;8.90;99.90
37204;DHT22;23098;48.054;10.636;2023-04-24T04:43:05;8.90;99.90
37204;DHT22;23098;48.054;10.636;2023-04-24T04:45:31;8.90;99.90
37204;DHT22;23098;48.054;10.636;2023-04-24T04:47:58;9.00;99.90
37204;DHT22;23098;48.054;10.636;2023-04-24T04:50:26;9.00;99.90
37204;DHT22;23098;48.054;10.636;2023-04-24T04:52:52;9.00;99.90
37204;DHT22;23098;48.054;10.636;2023-04-24T04:55:17;9.00;99.90
37204;DHT22;23098;48.054;10.636;2023-04-24T04:57:45;9.00;99.90
37204;DHT22;23098;48.054;10.636;2023-04-24T05:00:11;9.00;99.90
37204;DHT22;23098;48.054;10.636;2023-04-24T05:02:40;9.00;99.90
37204;DHT22;23098;48.054;10.636;2023-04-24T05:05:06;9.00;99.90
37204;DHT22;23098;48.054;10.636;2023-04-24T05:07:32;9.00;99.90
37204;DHT22;23098;48.054;10.636;2023-04-24T05:09:58;9.00;99.90
37204;DHT22;23098;48.054;10.636;2023-04-24T05:12:23;9.00;99.90
37204;DHT22;23098;48.054;10.636;2023-04-24T05:14:49;9.00;99.90
37204;DHT22;23098;48.054;10.636;2023-04-24T05:17:15;9.00;99.90
37204;DHT22;23098;48.054;10.636;2023-04-24T05:19:40;9.00;99.90
37204;DHT22;23098;48.054;10.636;2023-04-24T05:22:06;9.00;99.90
37204;DHT22;23098;48.054;10.636;2023-04-24T05:24:35;9.00;99.90
37204;DHT22;23098;48.054;10.636;2023-04-24T05:27:02;9.00;99.90
37204;DHT22;23098;48.054;10.636;2023-04-24T05:29:30;9.00;99.90
37204;DHT22;23098;48.054;10.636;2023-04-24T05:31:57;9.00;99.90
37204;DHT22;23098;48.054;10.636;2023-04-24T05:34:23;9.00;99.90
37204;DHT22;23098;48.054;10.636;2023-04-24T05:36:48;9.00;99.90
37204;DHT22;23098;48.054;10.636;2023-04-24T05:39:16;9.10;99.90
37204;DHT22;23098;48.054;10.636;2023-04-24T05:41:41;9.00;99.90
37204;DHT22;23098;48.054;10.636;2023-04-24T05:44:07;9.00;99.90
37204;DHT22;23098;48.054;10.636;2023-04-24T05:46:32;9.10;99.90
37204;DHT22;23098;48.054;10.636;2023-04-24T05:48:58;9.10;99.90
37204;DHT22;23098;48.054;10.636;2023-04-24T05:51:24;9.10;99.90
37204;DHT22;23098;48.054;10.636;2023-04-24T05:53:49;9.10;99.90
37204;DHT22;23098;48.054;10.636;2023-04-24T05:56:15;9.10;99.90
37204;DHT22;23098;48.054;10.636;2023-04-24T05:58:41;9.10;99.90
37204;DHT22;23098;48.054;10.636;2023-04-24T06:01:06;9.20;99.90
37204;DHT22;23098;48.054;10.636;2023-04-24T06:03:32;9.20;99.90
37204;DHT22;23098;48.054;10.636;2023-04-24T06:05:58;9.20;99.90
37204;DHT22;23098;48.054;10.636;2023-04-24T06:08:23;9.30;99.90
37204;DHT22;23098;48.054;10.636;2023-04-24T06:10:49;9.30;99.90
37204;DHT22;23098;48.054;10.636;2023-04-24T06:13:15;9.30;99.90
37204;DHT22;23098;48.054;10.636;2023-04-24T06:15:41;9.30;99.90
37204;DHT22;23098;48.054;10.636;2023-04-24T06:18:09;9.30;99.90
37204;DHT22;23098;48.054;10.636;2023-04-24T06:20:41;9.40;99.90
37204;DHT22;23098;48.054;10.636;2023-04-24T06:23:07;9.40;99.90
37204;DHT22;23098;48.054;10.636;2023-04-24T06:25:32;9.40;99.90
37204;DHT22;23098;48.054;10.636;2023-04-24T06:27:58;9.40;99.90
37204;DHT22;23098;48.054;10.636;2023-04-24T06:30:24;9.50;99.90
37204;DHT22;23098;48.054;10.636;2023-04-24T06:32:50;9.50;99.90
37204;DHT22;23098;48.054;10.636;2023-04-24T06:35:15;9.50;99.90
37204;DHT22;23098;48.054;10.636;2023-04-24T06:37:42;9.50;99.90
37204;DHT22;23098;48.054;10.636;2023-04-24T06:40:08;9.60;99.90
37204;DHT22;23098;48.054;10.636;2023-04-24T06:42:33;9.60;99.90
37204;DHT22;23098;48.054;10.636;2023-04-24T06:45:00;9.60;99.90
37204;DHT22;23098;48.054;10.636;2023-04-24T06:47:26;9.60;99.90
37204;DHT22;23098;48.054;10.636;2023-04-24T06:49:51;9.70;99.90
37204;DHT22;23098;48.054;10.636;2023-04-24T06:52:18;9.80;99.90
37204;DHT22;23098;48.054;10.636;2023-04-24T06:54:44;9.80;99.90
37204;DHT22;23098;48.054;10.636;2023-04-24T06:57:10;9.90;99.90
37204;DHT22;23098;48.054;10.636;2023-04-24T06:59:36;9.90;99.90
37204;DHT22;23098;48.054;10.636;2023-04-24T07:02:02;9.90;99.90
37204;DHT22;23098;48.054;10.636;2023-04-24T07:04:28;9.90;99.90
37204;DHT22;23098;48.054;10.636;2023-04-24T07:06:54;9.90;99.90
37204;DHT22;23098;48.054;10.636;2023-04-24T07:09:21;9.90;99.90
37204;DHT22;23098;48.054;10.636;2023-04-24T07:11:47;9.90;99.90
37204;DHT22;23098;48.054;10.636;2023-04-24T07:14:13;10.00;99.90
37204;DHT22;23098;48.054;10.636;2023-04-24T07:16:39;10.00;99.90
37204;DHT22;23098;48.054;10.636;2023-04-24T07:19:05;10.00;99.90
37204;DHT22;23098;48.054;10.636;2023-04-24T07:21:31;10.10;99.90
37204;DHT22;23098;48.054;10.636;2023-04-24T07:23:58;10.00;99.90
37204;DHT22;23098;48.054;10.636;2023-04-24T07:26:23;10.00;99.90
37204;DHT22;23098;48.054;10.636;2023-04-24T07:28:50;9.80;99.90
37204;DHT22;23098;48.054;10.636;2023-04-24T07:31:15;9.60;99.90
37204;DHT22;23098;48.054;10.636;2023-04-24T07:33:41;9.10;99.90
37204;DHT22;23098;48.054;10.636;2023-04-24T07:36:06;8.10;99.90
37204;DHT22;23098;48.054;10.636;2023-04-24T07:38:32;7.80;99.90
37204;DHT22;23098;48.054;10.636;2023-04-24T07:40:58;7.40;99.90
37204;DHT22;23098;48.054;10.636;2023-04-24T07:43:23;7.40;99.90
37204;DHT22;23098;48.054;10.636;2023-04-24T07:45:52;7.20;99.90
37204;DHT22;23098;48.054;10.636;2023-04-24T07:48:18;7.30;99.90
37204;DHT22;23098;48.054;10.636;2023-04-24T07:50:44;7.30;99.90
37204;DHT22;23098;48.054;10.636;2023-04-24T07:53:10;7.60;99.90
37204;DHT22;23098;48.054;10.636;2023-04-24T07:55:36;7.60;99.90
37204;DHT22;23098;48.054;10.636;2023-04-24T07:58:01;7.60;99.90
37204;DHT22;23098;48.054;10.636;2023-04-24T08:00:27;7.50;99.90
37204;DHT22;23098;48.054;10.636;2023-04-24T08:02:52;7.40;99.90
37204;DHT22;23098;48.054;10.636;2023-04-24T08:05:18;7.40;99.90
37204;DHT22;23098;48.054;10.636;2023-04-24T08:07:45;7.50;99.90
37204;DHT22;23098;48.054;10.636;2023-04-24T08:10:11;7.40;99.90
37204;DHT22;23098;48.054;10.636;2023-04-24T08:12:37;7.50;99.90
37204;DHT22;23098;48.054;10.636;2023-04-24T08:15:03;7.60;99.90
37204;DHT22;23098;48.054;10.636;2023-04-24T08:17:29;7.80;99.90
37204;DHT22;23098;48.054;10.636;2023-04-24T08:19:55;8.10;99.90
37204;DHT22;23098;48.054;10.636;2023-04-24T08:22:27;8.30;99.90
37204;DHT22;23098;48.054;10.636;2023-04-24T08:24:52;8.50;99.90
37204;DHT22;23098;48.054;10.636;2023-04-24T08:27:18;8.50;99.90
37204;DHT22;23098;48.054;10.636;2023-04-24T08:29:44;8.40;99.90
37204;DHT22;23098;48.054;10.636;2023-04-24T08:32:10;8.50;99.90
37204;DHT22;23098;48.054;10.636;2023-04-24T08:34:36;8.90;99.90
37204;DHT22;23098;48.054;10.636;2023-04-24T08:37:03;9.10;99.90
37204;DHT22;23098;48.054;10.636;2023-04-24T08:39:29;9.30;99.90
37204;DHT22;23098;48.054;10.636;2023-04-24T08:41:58;9.70;99.90
37204;DHT22;23098;48.054;10.636;2023-04-24T08:44:32;9.80;99.90
37204;DHT22;23098;48.054;10.636;2023-04-24T08:46:58;10.20;99.90
37204;DHT22;23098;48.054;10.636;2023-04-24T08:49:24;10.30;99.90
37204;DHT22;23098;48.054;10.636;2023-04-24T08:51:50;10.50;99.90
37204;DHT22;23098;48.054;10.636;2023-04-24T08:54:18;10.60;99.90
37204;DHT22;23098;48.054;10.636;2023-04-24T08:56:44;10.60;99.90
37204;DHT22;23098;48.054;10.636;2023-04-24T08:59:12;10.90;99.90
37204;DHT22;23098;48.054;10.636;2023-04-24T09:01:40;11.10;99.90
37204;DHT22;23098;48.054;10.636;2023-04-24T09:04:08;11.40;99.90
37204;DHT22;23098;48.054;10.636;2023-04-24T09:06:35;11.40;99.90
37204;DHT22;23098;48.054;10.636;2023-04-24T09:09:01;11.40;99.90
37204;DHT22;23098;48.054;10.636;2023-04-24T09:11:27;11.40;99.90
37204;DHT22;23098;48.054;10.636;2023-04-24T09:13:54;11.60;99.90
37204;DHT22;23098;48.054;10.636;2023-04-24T09:16:20;11.70;99.90
37204;DHT22;23098;48.054;10.636;2023-04-24T09:18:46;11.60;99.90
37204;DHT22;23098;48.054;10.636;2023-04-24T09:21:11;11.70;99.90
37204;DHT22;23098;48.054;10.636;2023-04-24T09:23:37;11.70;99.90
37204;DHT22;23098;48.054;10.636;2023-04-24T09:26:04;11.40;99.90
37204;DHT22;23098;48.054;10.636;2023-04-24T09:28:39;11.30;99.90
37204;DHT22;23098;48.054;10.636;2023-04-24T09:31:09;11.40;99.90
37204;DHT22;23098;48.054;10.636;2023-04-24T09:33:35;11.40;99.90
37204;DHT22;23098;48.054;10.636;2023-04-24T09:36:02;11.50;99.90
37204;DHT22;23098;48.054;10.636;2023-04-24T09:41:02;10.30;99.90
37204;DHT22;23098;48.054;10.636;2023-04-24T09:43:28;8.40;99.90
37204;DHT22;23098;48.054;10.636;2023-04-24T09:45:58;7.50;99.90
37204;DHT22;23098;48.054;10.636;2023-04-24T09:48:35;7.00;99.90
37204;DHT22;23098;48.054;10.636;2023-04-24T09:51:03;7.00;99.90
37204;DHT22;23098;48.054;10.636;2023-04-24T09:53:30;7.10;99.90
37204;DHT22;23098;48.054;10.636;2023-04-24T09:55:56;7.20;99.90
37204;DHT22;23098;48.054;10.636;2023-04-24T09:58:28;7.20;99.90
37204;DHT22;23098;48.054;10.636;2023-04-24T10:00:55;7.20;99.90
37204;DHT22;23098;48.054;10.636;2023-04-24T10:03:24;7.40;99.90
37204;DHT22;23098;48.054;10.636;2023-04-24T10:05:51;7.60;99.90
37204;DHT22;23098;48.054;10.636;2023-04-24T10:08:17;7.80;99.90
37204;DHT22;23098;48.054;10.636;2023-04-24T10:10:44;8.40;99.90
37204;DHT22;23098;48.054;10.636;2023-04-24T10:13:11;9.00;99.90
37204;DHT22;23098;48.054;10.636;2023-04-24T10:15:38;9.50;99.90
37204;DHT22;23098;48.054;10.636;2023-04-24T10:18:07;9.80;99.90
37204;DHT22;23098;48.054;10.636;2023-04-24T10:20:35;10.10;99.90
37204;DHT22;23098;48.054;10.636;2023-04-24T10:23:02;10.40;99.90
37204;DHT22;23098;48.054;10.636;2023-04-24T10:25:30;10.50;99.90
37204;DHT22;23098;48.054;10.636;2023-04-24T10:27:56;10.50;99.90
37204;DHT22;23098;48.054;10.636;2023-04-24T10:30:26;10.50;99.90
37204;DHT22;23098;48.054;10.636;2023-04-24T10:32:51;10.90;99.90
37204;DHT22;23098;48.054;10.636;2023-04-24T10:35:18;11.30;99.90
37204;DHT22;23098;48.054;10.636;2023-04-24T10:38:12;11.80;99.90
37204;DHT22;23098;48.054;10.636;2023-04-24T10:40:37;11.70;99.90
37204;DHT22;23098;48.054;10.636;2023-04-24T10:43:05;11.30;99.90
37204;DHT22;23098;48.054;10.636;2023-04-24T10:45:36;11.20;99.90
37204;DHT22;23098;48.054;10.636;2023-04-24T10:48:06;11.10;99.90
37204;DHT22;23098;48.054;10.636;2023-04-24T10:50:43;11.00;99.90
37204;DHT22;23098;48.054;10.636;2023-04-24T10:53:17;10.80;99.90
37204;DHT22;23098;48.054;10.636;2023-04-24T10:58:16;11.00;99.90
37204;DHT22;23098;48.054;10.636;2023-04-24T11:00:43;10.80;99.90
37204;DHT22;23098;48.054;10.636;2023-04-24T11:03:50;10.70;99.90
37204;DHT22;23098;48.054;10.636;2023-04-24T11:06:16;11.10;99.90
37204;DHT22;23098;48.054;10.636;2023-04-24T11:08:45;11.30;99.90
37204;DHT22;23098;48.054;10.636;2023-04-24T11:11:16;11.50;99.90
37204;DHT22;23098;48.054;10.636;2023-04-24T11:16:52;11.60;99.90
37204;DHT22;23098;48.054;10.636;2023-04-24T11:19:25;11.70;99.90
37204;DHT22;23098;48.054;10.636;2023-04-24T11:24:50;12.10;99.90
37204;DHT22;23098;48.054;10.636;2023-04-24T11:27:20;12.50;99.90
37204;DHT22;23098;48.054;10.636;2023-04-24T11:29:51;12.20;99.90
37204;DHT22;23098;48.054;10.636;2023-04-24T11:32:34;11.90;99.90
37204;DHT22;23098;48.054;10.636;2023-04-24T11:35:19;11.90;99.90
37204;DHT22;23098;48.054;10.636;2023-04-24T11:37:47;11.70;99.90
37204;DHT22;23098;48.054;10.636;2023-04-24T11:40:17;11.60;99.90
37204;DHT22;23098;48.054;10.636;2023-04-24T11:42:47;11.60;99.90
37204;DHT22;23098;48.054;10.636;2023-04-24T11:45:24;11.60;99.90
37204;DHT22;23098;48.054;10.636;2023-04-24T11:47:50;11.40;99.90
37204;DHT22;23098;48.054;10.636;2023-04-24T11:50:18;11.30;99.90
37204;DHT22;23098;48.054;10.636;2023-04-24T11:52:46;11.30;99.80
37204;DHT22;23098;48.054;10.636;2023-04-24T11:57:43;11.80;98.90
37204;DHT22;23098;48.054;10.636;2023-04-24T12:00:18;12.00;98.40
37204;DHT22;23098;48.054;10.636;2023-04-24T12:02:45;11.90;97.40
37204;DHT22;23098;48.054;10.636;2023-04-24T12:05:20;12.00;97.70
37204;DHT22;23098;48.054;10.636;2023-04-24T12:07:46;11.90;97.20
37204;DHT22;23098;48.054;10.636;2023-04-24T12:10:12;12.00;97.90
37204;DHT22;23098;48.054;10.636;2023-04-24T12:12:37;12.00;96.40
37204;DHT22;23098;48.054;10.636;2023-04-24T12:15:07;12.00;96.60
37204;DHT22;23098;48.054;10.636;2023-04-24T12:17:34;12.00;95.90
37204;DHT22;23098;48.054;10.636;2023-04-24T12:20:06;12.00;94.90
37204;DHT22;23098;48.054;10.636;2023-04-24T12:22:58;11.90;95.40
37204;DHT22;23098;48.054;10.636;2023-04-24T12:25:25;12.00;96.50
37204;DHT22;23098;48.054;10.636;2023-04-24T12:30:34;12.50;95.00
37204;DHT22;23098;48.054;10.636;2023-04-24T12:33:01;12.70;94.10
37204;DHT22;23098;48.054;10.636;2023-04-24T12:35:29;12.70;95.00
37204;DHT22;23098;48.054;10.636;2023-04-24T12:37:55;13.10;95.80
37204;DHT22;23098;48.054;10.636;2023-04-24T12:40:21;13.30;95.70
37204;DHT22;23098;48.054;10.636;2023-04-24T12:42:51;13.10;95.80
37204;DHT22;23098;48.054;10.636;2023-04-24T12:45:18;13.30;95.30
37204;DHT22;23098;48.054;10.636;2023-04-24T12:47:44;13.40;95.30
37204;DHT22;23098;48.054;10.636;2023-04-24T12:50:14;13.60;94.70
37204;DHT22;23098;48.054;10.636;2023-04-24T12:52:41;13.80;95.50
37204;DHT22;23098;48.054;10.636;2023-04-24T12:55:07;13.40;93.70
37204;DHT22;23098;48.054;10.636;2023-04-24T12:57:34;13.00;94.10
37204;DHT22;23098;48.054;10.636;2023-04-24T13:00:00;13.00;93.50
37204;DHT22;23098;48.054;10.636;2023-04-24T13:02:28;12.90;93.20
37204;DHT22;23098;48.054;10.636;2023-04-24T13:04:57;12.70;93.70
37204;DHT22;23098;48.054;10.636;2023-04-24T13:07:23;12.80;93.50
37204;DHT22;23098;48.054;10.636;2023-04-24T13:09:50;12.70;92.80
37204;DHT22;23098;48.054;10.636;2023-04-24T13:12:19;12.50;93.00
37204;DHT22;23098;48.054;10.636;2023-04-24T13:14:45;12.30;93.70
37204;DHT22;23098;48.054;10.636;2023-04-24T13:17:11;12.00;94.70
37204;DHT22;23098;48.054;10.636;2023-04-24T13:19:38;12.00;94.20
37204;DHT22;23098;48.054;10.636;2023-04-24T13:22:05;12.10;94.10
37204;DHT22;23098;48.054;10.636;2023-04-24T13:24:31;12.30;94.20
37204;DHT22;23098;48.054;10.636;2023-04-24T13:26:57;12.40;94.40
37204;DHT22;23098;48.054;10.636;2023-04-24T13:29:24;12.70;94.90
37204;DHT22;23098;48.054;10.636;2023-04-24T13:31:51;12.70;94.30
37204;DHT22;23098;48.054;10.636;2023-04-24T13:34:17;12.50;94.10
37204;DHT22;23098;48.054;10.636;2023-04-24T13:36:43;12.30;93.80
37204;DHT22;23098;48.054;10.636;2023-04-24T13:39:09;12.20;93.70
37204;DHT22;23098;48.054;10.636;2023-04-24T13:41:34;12.10;92.60
37204;DHT22;23098;48.054;10.636;2023-04-24T13:44:01;12.50;94.30
37204;DHT22;23098;48.054;10.636;2023-04-24T13:46:27;12.40;96.10
37204;DHT22;23098;48.054;10.636;2023-04-24T13:48:52;12.60;96.30
37204;DHT22;23098;48.054;10.636;2023-04-24T13:51:18;12.50;95.10
37204;DHT22;23098;48.054;10.636;2023-04-24T13:53:43;12.70;95.10
37204;DHT22;23098;48.054;10.636;2023-04-24T13:56:10;13.30;93.30
37204;DHT22;23098;48.054;10.636;2023-04-24T13:58:35;13.50;93.10
37204;DHT22;23098;48.054;10.636;2023-04-24T14:01:02;13.80;93.40
37204;DHT22;23098;48.054;10.636;2023-04-24T14:03:28;13.90;93.00
37204;DHT22;23098;48.054;10.636;2023-04-24T14:05:54;13.90;91.50
37204;DHT22;23098;48.054;10.636;2023-04-24T14:08:19;13.90;91.70
37204;DHT22;23098;48.054;10.636;2023-04-24T14:10:45;13.90;91.70
37204;DHT22;23098;48.054;10.636;2023-04-24T14:13:11;13.60;91.30
37204;DHT22;23098;48.054;10.636;2023-04-24T14:15:36;14.10;92.00
37204;DHT22;23098;48.054;10.636;2023-04-24T14:18:02;14.40;91.80
37204;DHT22;23098;48.054;10.636;2023-04-24T14:20:28;14.10;91.60
37204;DHT22;23098;48.054;10.636;2023-04-24T14:22:54;13.90;91.90
37204;DHT22;23098;48.054;10.636;2023-04-24T14:25:19;13.70;91.40
37204;DHT22;23098;48.054;10.636;2023-04-24T14:27:45;13.80;90.90
37204;DHT22;23098;48.054;10.636;2023-04-24T14:30:12;13.40;91.00
37204;DHT22;23098;48.054;10.636;2023-04-24T14:32:38;12.90;92.30
37204;DHT22;23098;48.054;10.636;2023-04-24T14:35:05;12.50;92.00
37204;DHT22;23098;48.054;10.636;2023-04-24T14:37:31;12.50;92.40
37204;DHT22;23098;48.054;10.636;2023-04-24T14:39:57;12.60;91.70
37204;DHT22;23098;48.054;10.636;2023-04-24T14:42:22;13.30;91.60
37204;DHT22;23098;48.054;10.636;2023-04-24T14:44:48;13.40;92.30
37204;DHT22;23098;48.054;10.636;2023-04-24T14:47:13;12.50;91.60
37204;DHT22;23098;48.054;10.636;2023-04-24T14:49:39;12.30;93.40
37204;DHT22;23098;48.054;10.636;2023-04-24T14:52:05;12.30;92.80
37204;DHT22;23098;48.054;10.636;2023-04-24T14:54:30;12.30;94.10
37204;DHT22;23098;48.054;10.636;2023-04-24T14:56:56;12.60;92.10
37204;DHT22;23098;48.054;10.636;2023-04-24T14:59:22;12.50;92.30
37204;DHT22;23098;48.054;10.636;2023-04-24T15:01:48;13.20;91.90
37204;DHT22;23098;48.054;10.636;2023-04-24T15:04:13;13.40;92.00
37204;DHT22;23098;48.054;10.636;2023-04-24T15:06:39;13.70;92.10
37204;DHT22;23098;48.054;10.636;2023-04-24T15:09:05;13.60;91.10
37204;DHT22;23098;48.054;10.636;2023-04-24T15:11:30;13.80;91.10
37204;DHT22;23098;48.054;10.636;2023-04-24T15:13:56;13.00;90.40
37204;DHT22;23098;48.054;10.636;2023-04-24T15:16:22;13.10;90.50
37204;DHT22;23098;48.054;10.636;2023-04-24T15:18:48;13.00;90.90
37204;DHT22;23098;48.054;10.636;2023-04-24T15:21:14;13.00;90.80
37204;DHT22;23098;48.054;10.636;2023-04-24T15:23:39;13.40;90.70
37204;DHT22;23098;48.054;10.636;2023-04-24T15:26:06;12.80;91.60
37204;DHT22;23098;48.054;10.636;2023-04-24T15:28:32;12.70;91.60
37204;DHT22;23098;48.054;10.636;2023-04-24T15:30:57;12.40;91.80
37204;DHT22;23098;48.054;10.636;2023-04-24T15:33:23;11.90;91.90
37204;DHT22;23098;48.054;10.636;2023-04-24T15:35:49;11.80;92.20
37204;DHT22;23098;48.054;10.636;2023-04-24T15:38:14;11.90;92.20